This is the latest recevied weather packets stored in our database for station/object G0TQM-11. If no packets are shown the sender has not sent any weather packets the latest 10 day(s).
| Time | Temp. | Humidity | Pressure | Rain* | Wind** | Luminosity | Snow |
|---|---|---|---|---|---|---|---|
| 1777635894 | 20.56° C | 36% | 1016.5 hPa | - | - | - | - |
| 1777634694 | 21.67° C | 34% | 1016.9 hPa | - | - | - | - |
| 1777633494 | 23.89° C | 31% | 1016.7 hPa | - | - | - | - |
| 1777632294 | 23.89° C | 29% | 1016 hPa | - | - | - | - |
| 1777631093 | 23.33° C | 29% | 1016 hPa | - | - | - | - |
| 1777629893 | 21.67° C | 31% | 1015.9 hPa | - | - | - | - |
| 1777628693 | 21.11° C | 30% | 1015.8 hPa | - | - | - | - |
| 1777627493 | 19.44° C | 31% | 1015.8 hPa | - | - | - | - |
| 1777626293 | 18.33° C | 32% | 1016 hPa | - | - | - | - |
| 1777625093 | 17.22° C | 33% | 1016 hPa | - | - | - | - |
| 1777623892 | 16.67° C | 33% | 1016 hPa | - | - | - | - |
| 1777622692 | 16.11° C | 33% | 1015.8 hPa | - | - | - | - |
| 1777621492 | 15° C | 34% | 1015.8 hPa | - | - | - | - |
| 1777620292 | 13.89° C | 34% | 1015.7 hPa | - | - | - | - |
| 1777619092 | 13.33° C | 35% | 1015.6 hPa | - | - | - | - |
| 1777617892 | 12.22° C | 36% | 1015.6 hPa | - | - | - | - |
| 1777616691 | 10.56° C | 37% | 1015.9 hPa | - | - | - | - |
| 1777615491 | 10° C | 38% | 1016 hPa | - | - | - | - |
| 1777614291 | 8.89° C | 38% | 1016 hPa | - | - | - | - |
| 1777613091 | 8.33° C | 39% | 1016 hPa | - | - | - | - |
| 1777611891 | 8.33° C | 39% | 1015.9 hPa | - | - | - | - |
| 1777610690 | 7.78° C | 39% | 1015.8 hPa | - | - | - | - |
| 1777609497 | 7.78° C | 40% | 1015.9 hPa | - | - | - | - |
| 1777608296 | 8.33° C | 39% | 1015.9 hPa | - | - | - | - |
| 1777607096 | 8.33° C | 39% | 1016.2 hPa | - | - | - | - |
* Rain since midnight (hover to see other rain measurements)
** Current wind speed in m/s (hover to see current wind gust speed)